Time;durP1;ratioP1;P1;durP2;ratioP2;P2;SDS_P1;SDS_P2;PMS_P1;PMS_P2;Temp;Humidity;BMP_temperature;BMP_pressure;BME280_temperature;BME280_humidity;BME280_pressure;Samples;Min_cycle;Max_cycle;Signal;HPM_P1;HPM_P2
2022/08/04 00:01:43;;;;;;;4.28;2.50;;;;;;;19.36;60.91;99157.52;1759324;81;21049;-78
2022/08/04 00:04:23;;;;;;;4.42;2.60;;;;;;;19.35;58.73;99161.56;1753251;81;21007;-79
2022/08/04 00:07:07;;;;;;;4.33;2.70;;;;;;;19.33;59.15;99159.01;1742738;81;20990;-79
2022/08/04 00:09:57;;;;;;;6.15;2.90;;;;;;;19.35;58.87;99150.53;1752445;81;20998;-78
2022/08/04 00:12:32;;;;;;;5.35;2.60;;;;;;;19.42;58.73;99152.35;1725569;81;21038;-80
2022/08/04 00:15:03;;;;;;;5.30;2.80;;;;;;;19.47;58.59;99153.74;1751997;81;21005;-79
2022/08/04 00:17:40;;;;;;;5.15;2.90;;;;;;;19.53;58.67;99150.37;1761776;81;21025;-80
2022/08/04 00:20:09;;;;;;;5.25;3.12;;;;;;;19.58;58.47;99156.22;1753033;81;21044;-79
2022/08/04 00:22:39;;;;;;;6.75;2.90;;;;;;;19.58;58.18;99157.06;1761993;81;21034;-80
2022/08/04 00:25:06;;;;;;;6.35;2.70;;;;;;;19.60;58.16;99160.45;1755778;80;21025;-80
2022/08/04 00:27:32;;;;;;;4.00;2.72;;;;;;;19.63;58.10;99157.61;1762168;81;20957;-80
2022/08/04 00:29:59;;;;;;;5.12;3.15;;;;;;;19.66;58.18;99165.83;1756526;81;21097;-80
2022/08/04 00:32:26;;;;;;;6.22;2.83;;;;;;;19.65;57.84;99161.00;1762707;81;21017;-80
2022/08/04 00:34:56;;;;;;;5.53;3.22;;;;;;;19.62;58.37;99165.16;1753419;81;20995;-81
2022/08/04 00:37:25;;;;;;;7.75;2.90;;;;;;;19.57;58.64;99172.48;1746813;82;21021;-81
2022/08/04 00:39:56;;;;;;;7.08;2.83;;;;;;;19.52;58.53;99181.62;1747028;82;20959;-81
2022/08/04 00:42:40;;;;;;;8.28;3.25;;;;;;;19.44;59.26;99182.11;1749663;82;21396;-79
2022/08/04 00:45:30;;;;;;;4.67;2.85;;;;;;;19.40;59.80;99180.59;1747051;82;21062;-80
2022/08/04 00:48:34;;;;;;;5.62;3.00;;;;;;;19.32;58.31;99183.69;1743426;82;21068;-80
2022/08/04 00:51:07;;;;;;;;;;;;;;;19.22;58.79;99185.18;1729928;83;21066;-79
2022/08/04 00:54:01;;;;;;;7.23;2.93;;;;;;;19.09;61.29;99185.03;1741467;82;20131;-80
2022/08/04 00:56:42;;;;;;;6.78;3.17;;;;;;;19.02;59.57;99185.87;1747163;81;20994;-80
2022/08/04 00:59:38;;;;;;;7.30;2.95;;;;;;;18.95;60.59;99185.00;1737566;82;21054;-79
2022/08/04 01:02:56;;;;;;;5.42;3.30;;;;;;;18.93;60.75;99192.14;1706132;82;21094;-80
2022/08/04 01:06:02;;;;;;;4.65;2.92;;;;;;;18.90;60.87;99196.26;1751375;82;20978;-79
2022/08/04 01:08:54;;;;;;;9.53;3.15;;;;;;;18.84;60.52;99200.97;1749868;82;21026;-79
2022/08/04 01:11:58;;;;;;;8.98;3.08;;;;;;;18.80;61.99;99191.98;1748043;82;22184;-79
2022/08/04 01:14:45;;;;;;;5.83;3.30;;;;;;;18.73;60.57;99202.00;1741150;82;20998;-79
2022/08/04 01:17:26;;;;;;;7.80;3.10;;;;;;;18.65;60.95;99205.06;1743071;82;21557;-79
2022/08/04 01:20:01;;;;;;;7.40;3.27;;;;;;;18.56;59.79;99200.34;1745336;82;20950;-80
2022/08/04 01:22:37;;;;;;;6.00;2.98;;;;;;;18.48;60.00;99198.58;1747077;82;21014;-79
2022/08/04 01:25:31;;;;;;;7.35;3.52;;;;;;;18.44;61.00;99194.42;1746251;82;21640;-79
2022/08/04 01:28:22;;;;;;;5.58;3.30;;;;;;;18.38;60.31;99201.34;1715197;82;21668;-81
2022/08/04 01:30:52;;;;;;;6.95;3.33;;;;;;;18.32;60.83;99197.73;1733278;82;21505;-80
2022/08/04 01:33:22;;;;;;;5.15;3.30;;;;;;;18.29;61.41;99200.08;1742063;82;21038;-81
2022/08/04 01:35:55;;;;;;;5.33;3.12;;;;;;;18.26;61.47;99195.84;1750883;81;20983;-79
2022/08/04 01:38:35;;;;;;;9.23;3.30;;;;;;;18.27;62.13;99194.89;1740608;82;21022;-79
2022/08/04 01:41:09;;;;;;;6.65;3.25;;;;;;;18.27;61.86;99190.95;1751026;81;21006;-79
2022/08/04 01:43:43;;;;;;;6.05;3.30;;;;;;;18.26;62.11;99200.23;1747290;82;20994;-79
2022/08/04 01:46:13;;;;;;;6.58;3.67;;;;;;;18.27;61.97;99195.38;1749004;82;20962;-80
2022/08/04 01:48:46;;;;;;;4.85;3.08;;;;;;;18.28;62.14;99203.19;1744620;82;21097;-80
2022/08/04 01:51:13;;;;;;;6.60;3.90;;;;;;;18.27;62.05;99194.06;1750256;82;20990;-79
2022/08/04 01:53:42;;;;;;;7.22;3.95;;;;;;;18.26;61.24;99198.92;1747356;81;21021;-80
2022/08/04 01:56:11;;;;;;;7.95;4.12;;;;;;;18.24;61.64;99197.72;1751108;82;21117;-80
2022/08/04 01:58:40;;;;;;;8.05;4.37;;;;;;;18.22;63.57;99187.73;1748861;82;21424;-80
2022/08/04 02:01:10;;;;;;;6.33;4.00;;;;;;;18.21;62.82;99195.23;1741667;82;21068;-79
2022/08/04 02:03:41;;;;;;;6.70;3.75;;;;;;;18.22;63.45;99189.06;1750954;82;21045;-80
2022/08/04 02:06:19;;;;;;;7.28;4.08;;;;;;;18.24;62.68;99192.89;1723053;82;21009;-79
2022/08/04 02:09:08;;;;;;;7.92;3.80;;;;;;;18.22;62.56;99193.45;1750569;82;22338;-79
2022/08/04 02:11:34;;;;;;;7.67;4.17;;;;;;;18.21;62.47;99194.39;1735053;82;21002;-79
2022/08/04 02:14:44;;;;;;;9.85;4.17;;;;;;;18.23;63.36;99194.69;1751185;82;20970;-79
2022/08/04 02:17:14;;;;;;;7.20;4.12;;;;;;;18.25;63.13;99194.61;1745377;82;20986;-80
2022/08/04 02:20:10;;;;;;;9.85;4.20;;;;;;;18.26;63.76;99200.23;1749827;81;20997;-79
2022/08/04 02:22:45;;;;;;;6.53;3.45;;;;;;;18.21;62.85;99195.71;1752677;80;21030;-79
2022/08/04 02:25:16;;;;;;;10.03;4.00;;;;;;;18.14;63.85;99200.91;1747669;82;20963;-79
2022/08/04 02:28:22;;;;;;;10.15;4.00;;;;;;;18.11;63.29;99205.05;1745402;82;21510;-79
2022/08/04 02:31:12;;;;;;;8.10;3.98;;;;;;;18.04;63.65;99200.56;1726523;82;21080;-79
2022/08/04 02:33:45;;;;;;;7.05;3.83;;;;;;;17.98;62.98;99197.79;1747447;82;21053;-80
2022/08/04 02:36:17;;;;;;;6.00;3.60;;;;;;;17.90;64.01;99198.67;1752369;81;21089;-78
2022/08/04 02:39:00;;;;;;;9.68;4.00;;;;;;;17.85;65.20;99203.34;1761481;81;21396;-79
2022/08/04 02:41:29;;;;;;;8.15;4.22;;;;;;;17.81;64.46;99199.99;1755178;81;21025;-80
2022/08/04 02:44:03;;;;;;;9.60;4.60;;;;;;;17.74;63.26;99197.77;1761284;81;20997;-80
2022/08/04 02:46:34;;;;;;;11.03;4.67;;;;;;;17.62;64.82;99197.47;1756952;81;21525;-79
2022/08/04 02:49:05;;;;;;;7.22;3.92;;;;;;;17.54;66.15;99202.75;1756315;81;21077;-79
2022/08/04 02:51:35;;;;;;;8.05;3.83;;;;;;;17.45;65.17;99204.09;1758367;81;20993;-80
2022/08/04 02:54:06;;;;;;;7.90;4.30;;;;;;;17.37;65.64;99203.61;1755847;81;20989;-78
2022/08/04 02:56:35;;;;;;;9.28;3.95;;;;;;;17.36;66.17;99194.88;1739422;81;21657;-79
2022/08/04 02:59:09;;;;;;;6.85;3.80;;;;;;;17.36;67.04;99197.52;1759087;81;21018;-79
2022/08/04 03:01:36;;;;;;;7.28;4.30;;;;;;;17.37;66.13;99198.36;1762059;81;21007;-80
2022/08/04 03:04:42;;;;;;;5.53;3.35;;;;;;;17.33;66.63;99202.94;1754259;81;20997;-79
2022/08/04 03:07:41;;;;;;;5.78;3.75;;;;;;;17.34;67.64;99209.04;1743704;81;21025;-78
2022/08/04 03:10:37;;;;;;;11.38;3.75;;;;;;;17.35;66.59;99204.16;1762100;81;21009;-78
2022/08/04 03:13:43;;;;;;;5.30;3.20;;;;;;;17.37;67.25;99208.42;1757893;81;21014;-79
2022/08/04 03:16:50;;;;;;;6.62;3.10;;;;;;;17.38;68.73;99207.48;1761298;81;21435;-79
2022/08/04 03:19:51;;;;;;;6.75;3.58;;;;;;;17.39;67.08;99206.56;1747043;81;21069;-79
2022/08/04 03:23:11;;;;;;;5.30;3.10;;;;;;;17.34;66.34;99216.92;1743313;81;21073;-79
2022/08/04 03:26:26;;;;;;;8.05;3.87;;;;;;;17.36;68.37;99221.63;1748880;81;21049;-79
2022/08/04 03:29:27;;;;;;;9.90;3.72;;;;;;;17.38;66.30;99217.15;1737152;81;21481;-78
2022/08/04 03:32:11;;;;;;;7.47;3.80;;;;;;;17.38;67.11;99223.25;1757597;81;21105;-79
2022/08/04 03:35:20;;;;;;;10.70;3.37;;;;;;;17.40;67.78;99216.61;1713724;81;21021;-79
2022/08/04 03:38:24;;;;;;;8.40;4.03;;;;;;;17.41;66.69;99218.32;1709936;84;21137;-78
2022/08/04 03:41:17;;;;;;;;;;;;;;;17.43;66.86;99219.93;1685743;85;21087;-79
2022/08/04 03:44:19;;;;;;;7.42;3.87;;;;;;;17.47;69.58;99218.00;1702975;84;20474;-79
2022/08/04 03:46:54;;;;;;;12.50;4.22;;;;;;;17.48;66.01;99224.94;1683680;84;21087;-80
2022/08/04 03:49:41;;;;;;;11.30;4.62;;;;;;;17.50;68.12;99225.71;1689626;85;21162;-79
2022/08/04 03:53:08;;;;;;;7.20;4.12;;;;;;;17.44;66.88;99221.62;1690991;85;21571;-79
2022/08/04 03:56:19;;;;;;;6.50;4.53;;;;;;;17.47;67.38;99227.20;1688219;84;21019;-79
2022/08/04 03:59:12;;;;;;;9.73;3.92;;;;;;;17.50;66.15;99225.71;1682245;85;20980;-79
2022/08/04 04:02:20;;;;;;;13.30;4.50;;;;;;;17.53;67.16;99233.90;1684269;85;21063;-79
2022/08/04 04:05:20;;;;;;;11.78;4.17;;;;;;;17.58;67.31;99221.38;1692711;85;21003;-79
2022/08/04 04:08:07;;;;;;;8.13;3.98;;;;;;;17.63;66.63;99229.42;1694551;84;21054;-79
2022/08/04 04:11:02;;;;;;;6.37;4.30;;;;;;;17.64;67.16;99232.41;1693421;85;21011;-79
2022/08/04 04:13:46;;;;;;;10.30;4.30;;;;;;;17.68;66.79;99228.69;1686692;85;21027;-79
2022/08/04 04:16:24;;;;;;;7.80;4.17;;;;;;;17.74;66.91;99226.69;1691447;85;21018;-79
2022/08/04 04:19:18;;;;;;;7.37;4.17;;;;;;;17.78;67.02;99229.06;1682642;85;21734;-80
2022/08/04 04:22:11;;;;;;;14.03;4.40;;;;;;;17.81;66.25;99234.66;1691555;84;21007;-81
2022/08/04 04:25:29;;;;;;;9.18;4.15;;;;;;;17.85;66.60;99232.28;1693036;84;21523;-80
2022/08/04 04:28:25;;;;;;;11.28;4.55;;;;;;;17.81;65.89;99235.97;1685160;83;20976;-80
2022/08/04 04:31:19;;;;;;;6.42;3.72;;;;;;;17.81;65.05;99229.39;1680467;85;21294;-80
2022/08/04 04:34:09;;;;;;;7.95;3.77;;;;;;;17.84;65.91;99240.61;1685168;85;20978;-81
2022/08/04 04:37:02;;;;;;;7.03;4.03;;;;;;;17.88;65.92;99241.30;1699704;83;21066;-81
2022/08/04 04:39:43;;;;;;;6.80;3.47;;;;;;;17.95;65.50;99247.11;1748483;82;20975;-80
2022/08/04 04:42:50;;;;;;;8.45;3.50;;;;;;;18.02;65.79;99241.41;1748728;81;21519;-80
2022/08/04 04:45:54;;;;;;;9.20;3.72;;;;;;;18.11;66.17;99240.56;1738536;82;21061;-80
2022/08/04 04:48:32;;;;;;;11.43;3.45;;;;;;;18.22;66.02;99236.42;1746974;82;20974;-79
2022/08/04 04:51:40;;;;;;;16.02;3.42;;;;;;;18.36;65.79;99242.22;1745272;82;21998;-82
2022/08/04 04:54:52;;;;;;;14.33;3.87;;;;;;;18.47;65.59;99248.23;1747349;81;21085;-80
2022/08/04 04:57:21;;;;;;;10.32;3.87;;;;;;;18.62;65.54;99246.06;1739765;82;21005;-81
2022/08/04 04:59:59;;;;;;;16.73;5.22;;;;;;;18.77;65.27;99246.14;1741507;82;20994;-79
2022/08/04 05:03:00;;;;;;;15.00;4.70;;;;;;;18.85;64.87;99250.05;1751452;82;20986;-79
2022/08/04 05:05:59;;;;;;;9.43;4.47;;;;;;;18.96;64.73;99255.17;1750338;82;20987;-83
2022/08/04 05:08:40;;;;;;;11.90;4.28;;;;;;;18.99;63.97;99255.86;1728094;82;21056;-80
2022/08/04 05:11:39;;;;;;;7.50;4.12;;;;;;;19.04;63.36;99256.45;1745610;82;21565;-80
2022/08/04 05:14:29;;;;;;;10.30;4.70;;;;;;;19.02;63.27;99253.51;1746469;81;21049;-79
2022/08/04 05:17:01;;;;;;;11.15;4.08;;;;;;;19.06;63.15;99257.69;1749820;82;21036;-79
2022/08/04 05:19:56;;;;;;;8.90;3.47;;;;;;;19.14;62.63;99253.27;1744793;81;21041;-79
2022/08/04 05:22:34;;;;;;;9.38;3.90;;;;;;;19.21;62.21;99253.30;1740319;82;21034;-80
2022/08/04 05:25:06;;;;;;;5.40;3.67;;;;;;;19.25;61.83;99255.66;1746853;82;21010;-80
2022/08/04 05:27:40;;;;;;;7.72;4.45;;;;;;;19.33;61.76;99255.70;1745532;82;21042;-80
2022/08/04 05:30:10;;;;;;;12.07;4.30;;;;;;;19.40;61.53;99261.00;1747177;82;21501;-81
2022/08/04 05:32:51;;;;;;;6.95;3.65;;;;;;;19.49;61.29;99261.76;1748476;82;21053;-80
2022/08/04 05:35:28;;;;;;;14.07;4.15;;;;;;;19.58;61.20;99263.86;1748524;82;20990;-80
2022/08/04 05:37:57;;;;;;;8.65;3.87;;;;;;;19.67;60.47;99271.20;1744430;81;21586;-79
2022/08/04 05:40:25;;;;;;;6.65;4.03;;;;;;;19.75;60.33;99263.34;1747617;82;21037;-79
2022/08/04 05:42:55;;;;;;;6.30;3.60;;;;;;;19.83;60.18;99271.16;1746593;82;21589;-79
2022/08/04 05:45:23;;;;;;;6.05;3.45;;;;;;;19.95;60.03;99267.41;1749962;82;21041;-79
2022/08/04 05:47:52;;;;;;;6.83;3.22;;;;;;;20.08;59.78;99266.20;1738046;81;21038;-79
2022/08/04 05:50:20;;;;;;;5.95;3.30;;;;;;;20.19;59.53;99261.09;1750637;82;21034;-80
2022/08/04 05:52:49;;;;;;;7.08;3.55;;;;;;;20.28;58.43;99263.17;1737811;82;21490;-80
2022/08/04 05:55:16;;;;;;;4.92;2.70;;;;;;;20.38;58.48;99272.69;1746797;82;21021;-79
2022/08/04 05:57:47;;;;;;;5.37;3.00;;;;;;;20.50;58.31;99263.14;1733473;82;21006;-80
2022/08/04 06:00:17;;;;;;;5.55;2.70;;;;;;;20.62;57.69;99261.91;1750391;82;21045;-79
2022/08/04 06:02:46;;;;;;;9.08;3.12;;;;;;;20.71;57.36;99262.27;1740080;82;21000;-79
2022/08/04 06:05:17;;;;;;;5.55;3.00;;;;;;;20.77;56.85;99262.73;1722532;81;20978;-79
2022/08/04 06:07:45;;;;;;;4.65;2.65;;;;;;;20.89;57.02;99258.91;1730885;81;21542;-80
2022/08/04 06:10:16;;;;;;;5.72;3.05;;;;;;;21.01;56.93;99266.06;1731852;82;21082;-78
2022/08/04 06:12:59;;;;;;;6.78;3.27;;;;;;;21.14;56.23;99260.80;1726955;81;21014;-80
2022/08/04 06:15:27;;;;;;;6.22;3.02;;;;;;;21.24;56.23;99260.07;1668186;86;21053;-79
2022/08/04 06:17:59;;;;;;;6.58;3.20;;;;;;;21.35;55.87;99258.53;1742119;81;21001;-78
2022/08/04 06:20:31;;;;;;;9.70;3.30;;;;;;;21.45;55.68;99264.45;1729976;82;21657;-79
2022/08/04 06:23:02;;;;;;;9.03;2.85;;;;;;;21.53;55.16;99263.09;1730230;82;21556;-81
2022/08/04 06:25:40;;;;;;;5.85;3.08;;;;;;;21.59;55.47;99256.90;1732772;81;21018;-79
2022/08/04 06:28:08;;;;;;;8.40;3.45;;;;;;;21.69;55.04;99254.47;1730850;82;21054;-80
2022/08/04 06:30:36;;;;;;;6.10;3.37;;;;;;;21.78;54.99;99264.41;1733146;81;21018;-80
2022/08/04 06:33:22;;;;;;;5.80;3.00;;;;;;;21.85;54.69;99251.62;1730718;82;21078;-81
2022/08/04 06:35:34;;;;;;;8.83;4.10;;;;;;;21.93;54.79;99252.41;1726174;82;21069;-79
2022/08/04 06:38:02;;;;;;;7.42;3.62;;;;;;;22.04;54.56;99254.69;1756194;80;22124;-80
2022/08/04 06:40:30;;;;;;;9.43;3.12;;;;;;;22.17;54.42;99249.84;1759091;80;21041;-80
2022/08/04 06:42:57;;;;;;;6.45;3.15;;;;;;;22.24;53.87;99251.98;1725683;82;21054;-80
2022/08/04 06:45:24;;;;;;;5.92;3.50;;;;;;;22.33;53.78;99250.48;1686990;83;21029;-80
2022/08/04 06:47:52;;;;;;;6.53;3.30;;;;;;;22.42;53.14;99246.31;1696945;84;21027;-80
2022/08/04 06:50:19;;;;;;;7.20;3.25;;;;;;;22.52;53.00;99251.80;1698109;84;20983;-80
2022/08/04 06:52:46;;;;;;;6.60;3.17;;;;;;;22.56;53.16;99250.62;1699025;84;21187;-79
2022/08/04 06:55:13;;;;;;;6.90;3.30;;;;;;;22.63;52.45;99250.55;1697902;84;20983;-81
2022/08/04 06:57:41;;;;;;;7.22;3.30;;;;;;;22.69;52.99;99255.89;1695940;84;21570;-80
2022/08/04 07:00:12;;;;;;;9.30;3.60;;;;;;;22.78;52.79;99248.12;1695754;84;20983;-80
2022/08/04 07:02:47;;;;;;;8.38;4.08;;;;;;;22.89;52.44;99250.45;1696987;84;21083;-79
2022/08/04 07:05:15;;;;;;;6.00;3.50;;;;;;;22.97;51.76;99255.55;1697553;84;21514;-80
2022/08/04 07:07:43;;;;;;;8.98;3.37;;;;;;;22.99;51.59;99248.81;1695866;84;21516;-80
2022/08/04 07:10:10;;;;;;;6.17;3.42;;;;;;;23.03;51.37;99247.66;1695218;84;21027;-80
2022/08/04 07:12:38;;;;;;;5.92;3.35;;;;;;;23.09;51.71;99251.17;1698807;84;21114;-82
2022/08/04 07:15:07;;;;;;;10.35;3.80;;;;;;;23.17;51.74;99252.77;1697888;84;21003;-80
2022/08/04 07:17:37;;;;;;;9.88;3.37;;;;;;;23.29;51.54;99247.52;1696946;84;21504;-81
2022/08/04 07:20:05;;;;;;;6.83;3.45;;;;;;;23.36;51.25;99244.28;1697696;84;20976;-81
2022/08/04 07:22:33;;;;;;;5.58;3.02;;;;;;;23.46;50.96;99246.22;1698352;84;22404;-80
2022/08/04 07:24:59;;;;;;;7.85;3.37;;;;;;;23.53;50.68;99239.49;1698904;84;21015;-80
2022/08/04 07:27:26;;;;;;;5.62;3.08;;;;;;;23.56;50.72;99235.30;1698823;84;20999;-80
2022/08/04 07:29:53;;;;;;;4.03;3.00;;;;;;;23.65;49.96;99229.75;1698885;84;21059;-83
2022/08/04 07:32:21;;;;;;;7.10;2.92;;;;;;;23.68;49.64;99224.22;1696193;84;20996;-81
2022/08/04 07:34:49;;;;;;;5.87;2.80;;;;;;;23.76;49.04;99230.61;1699201;84;21011;-82
2022/08/04 07:37:16;;;;;;;6.28;3.25;;;;;;;23.83;49.76;99221.70;1693657;84;21055;-80
2022/08/04 07:39:42;;;;;;;4.87;3.30;;;;;;;23.93;49.28;99229.31;1693848;85;21294;-80
2022/08/04 07:42:10;;;;;;;9.83;3.20;;;;;;;24.01;49.10;99232.23;1691258;85;21090;-81
2022/08/04 07:44:37;;;;;;;4.95;2.90;;;;;;;24.04;48.83;99221.01;1692554;85;21037;-81
2022/08/04 07:47:06;;;;;;;10.60;3.55;;;;;;;24.11;48.37;99223.52;1691054;85;21051;-81
2022/08/04 07:49:35;;;;;;;6.97;2.95;;;;;;;24.19;48.12;99222.42;1692922;85;21032;-81
2022/08/04 07:52:04;;;;;;;8.00;3.37;;;;;;;24.25;48.35;99223.27;1690444;85;21047;-82
2022/08/04 07:54:32;;;;;;;7.95;3.33;;;;;;;24.33;47.86;99221.33;1692184;84;21041;-80
2022/08/04 07:57:00;;;;;;;5.97;3.40;;;;;;;24.42;48.39;99220.59;1691330;85;21030;-80
2022/08/04 07:59:27;;;;;;;6.87;3.05;;;;;;;24.55;47.41;99212.49;1688393;85;21039;-80
2022/08/04 08:01:55;;;;;;;9.33;3.22;;;;;;;24.57;48.00;99223.38;1691714;85;21035;-80
2022/08/04 08:04:22;;;;;;;6.12;4.00;;;;;;;24.69;47.74;99225.53;1692145;85;21550;-78
2022/08/04 08:06:50;;;;;;;8.53;3.20;;;;;;;24.84;47.69;99218.09;1693771;85;21054;-80
2022/08/04 08:09:22;;;;;;;11.38;3.33;;;;;;;24.96;47.57;99219.73;1690329;85;21008;-81
2022/08/04 08:11:52;;;;;;;6.22;2.90;;;;;;;25.05;47.31;99222.59;1690391;85;21022;-79
2022/08/04 08:14:20;;;;;;;5.15;3.02;;;;;;;25.17;47.22;99221.11;1687985;85;21034;-79
2022/08/04 08:16:47;;;;;;;8.30;3.35;;;;;;;25.30;46.81;99221.42;1692008;84;21124;-80
2022/08/04 08:19:14;;;;;;;5.35;3.05;;;;;;;25.42;46.62;99218.22;1689629;85;21087;-80
2022/08/04 08:21:50;;;;;;;7.08;2.80;;;;;;;25.53;45.98;99222.98;1693305;85;20988;-80
2022/08/04 08:24:17;;;;;;;8.93;3.37;;;;;;;25.57;45.10;99217.76;1689077;84;21127;-81
2022/08/04 08:26:44;;;;;;;6.47;3.10;;;;;;;25.66;45.07;99216.61;1690877;85;21002;-80
2022/08/04 08:29:11;;;;;;;5.40;2.80;;;;;;;25.65;44.48;99217.60;1694759;85;21044;-81
2022/08/04 08:31:38;;;;;;;4.72;3.00;;;;;;;25.70;45.01;99212.70;1693096;85;21018;-80
2022/08/04 08:34:05;;;;;;;4.97;3.10;;;;;;;25.78;44.92;99208.89;1689547;85;21023;-80
2022/08/04 08:36:45;;;;;;;4.42;2.58;;;;;;;25.88;44.48;99204.94;1690827;84;21018;-81
2022/08/04 08:39:27;;;;;;;8.63;2.90;;;;;;;25.97;43.03;99209.52;1695284;84;21597;-80
2022/08/04 08:42:30;;;;;;;6.40;2.85;;;;;;;26.00;43.81;99206.56;1695995;84;21045;-80
2022/08/04 08:45:24;;;;;;;3.83;2.70;;;;;;;26.12;43.56;99208.64;1695563;84;21011;-80
2022/08/04 08:48:21;;;;;;;4.53;2.65;;;;;;;26.15;42.72;99199.89;1692264;85;21027;-80
2022/08/04 08:51:23;;;;;;;5.53;2.90;;;;;;;26.19;43.09;99204.47;1690350;85;20999;-80
2022/08/04 08:54:13;;;;;;;3.62;2.33;;;;;;;26.28;43.31;99197.00;1690437;85;21051;-80
2022/08/04 08:57:04;;;;;;;6.17;3.22;;;;;;;26.42;41.73;99205.56;1690027;85;21022;-79
2022/08/04 08:59:49;;;;;;;4.50;2.87;;;;;;;26.47;42.47;99198.02;1688268;85;21071;-79
2022/08/04 09:02:45;;;;;;;4.70;2.70;;;;;;;26.56;42.77;99194.50;1689028;85;21503;-80
2022/08/04 09:05:29;;;;;;;4.15;2.52;;;;;;;26.64;42.25;99189.38;1690568;85;21024;-80
2022/08/04 09:08:26;;;;;;;7.65;3.10;;;;;;;26.76;42.55;99192.76;1668432;84;21064;-79
2022/08/04 09:11:04;;;;;;;4.75;2.75;;;;;;;26.89;42.45;99196.47;1665081;85;21040;-78
2022/08/04 09:14:07;;;;;;;4.83;2.80;;;;;;;27.04;42.43;99187.06;1691546;85;21011;-79
2022/08/04 09:16:44;;;;;;;;;;;;;;;27.19;42.15;99190.12;1690800;85;21059;-79
2022/08/04 09:19:31;;;;;;;6.10;2.70;;;;;;;27.28;41.79;99177.30;1690179;84;20174;-80
2022/08/04 09:22:11;;;;;;;4.92;3.02;;;;;;;27.41;41.49;99180.98;1690404;85;21027;-79
2022/08/04 09:25:16;;;;;;;4.05;2.55;;;;;;;27.54;40.57;99184.19;1687793;85;22183;-79
2022/08/04 09:27:53;;;;;;;5.00;2.60;;;;;;;27.63;40.66;99176.30;1688902;85;21562;-80
2022/08/04 09:30:40;;;;;;;5.40;2.60;;;;;;;27.77;40.81;99170.47;1680664;85;21027;-79
2022/08/04 09:33:35;;;;;;;7.78;3.37;;;;;;;27.91;40.88;99178.53;1691559;85;21098;-79
2022/08/04 09:36:33;;;;;;;5.58;2.72;;;;;;;28.09;40.28;99181.26;1691867;85;21023;-79
2022/08/04 09:39:20;;;;;;;6.60;3.08;;;;;;;28.19;39.23;99175.36;1690511;84;21384;-79
2022/08/04 09:42:19;;;;;;;6.83;2.62;;;;;;;28.32;40.24;99173.17;1690856;85;21181;-80
2022/08/04 09:44:57;;;;;;;5.10;2.60;;;;;;;28.45;39.87;99179.98;1692209;84;21020;-80
2022/08/04 09:47:47;;;;;;;3.90;2.70;;;;;;;28.54;39.89;99173.77;1676568;85;21514;-80
2022/08/04 09:50:40;;;;;;;4.37;2.50;;;;;;;28.69;39.31;99168.25;1687353;85;21520;-80
2022/08/04 09:53:31;;;;;;;6.87;2.50;;;;;;;28.87;38.71;99170.92;1691336;84;21087;-80
2022/08/04 09:56:16;;;;;;;4.58;2.55;;;;;;;28.92;37.97;99164.59;1691495;85;21043;-80
2022/08/04 09:59:14;;;;;;;4.15;2.30;;;;;;;29.01;36.19;99164.18;1689746;85;21075;-81
2022/08/04 10:01:41;;;;;;;2.75;1.80;;;;;;;29.11;36.71;99160.94;1691948;83;20984;-81
2022/08/04 10:04:12;;;;;;;4.87;2.33;;;;;;;29.25;35.70;99154.69;1665202;85;21053;-80
2022/08/04 10:07:22;;;;;;;19.17;3.95;;;;;;;29.34;35.69;99156.40;1664330;85;21384;-80
2022/08/04 10:10:12;;;;;;;5.47;2.47;;;;;;;29.40;34.81;99148.24;1680406;84;21062;-78
2022/08/04 10:12:59;;;;;;;3.47;1.90;;;;;;;29.43;33.88;99147.43;1698978;83;21107;-80
2022/08/04 10:15:48;;;;;;;4.12;2.10;;;;;;;29.53;33.21;99151.34;1672904;84;21482;-80
2022/08/04 10:18:29;;;;;;;5.75;2.10;;;;;;;29.63;33.08;99145.88;1677157;84;20991;-80
2022/08/04 10:21:04;;;;;;;2.95;1.77;;;;;;;29.66;33.15;99138.33;1671770;84;21002;-80
2022/08/04 10:23:57;;;;;;;3.45;2.25;;;;;;;29.71;33.01;99129.83;1689390;83;21336;-80
2022/08/04 10:26:55;;;;;;;2.95;1.87;;;;;;;29.79;33.19;99129.90;1687500;85;21015;-80
2022/08/04 10:29:32;;;;;;;3.83;2.20;;;;;;;29.92;32.45;99132.97;1689788;83;21542;-80
2022/08/04 10:32:20;;;;;;;4.37;1.95;;;;;;;29.98;32.73;99133.31;1688451;83;21098;-78
2022/08/04 10:35:13;;;;;;;3.87;2.08;;;;;;;30.03;32.70;99126.98;1696425;83;21030;-80
2022/08/04 10:37:48;;;;;;;3.17;2.00;;;;;;;30.12;31.37;99127.31;1690629;85;21549;-82
2022/08/04 10:40:35;;;;;;;3.92;1.90;;;;;;;30.25;31.40;99118.31;1692738;84;21494;-81
2022/08/04 10:43:20;;;;;;;4.92;2.00;;;;;;;30.41;31.69;99118.88;1666929;84;21058;-81
2022/08/04 10:46:00;;;;;;;3.20;2.27;;;;;;;30.64;29.94;99120.42;1697643;83;21094;-82
2022/08/04 10:49:14;;;;;;;2.75;1.98;;;;;;;30.77;31.15;99125.27;1696805;83;21075;-81
2022/08/04 10:51:56;;;;;;;;;;;;;;;30.92;30.01;99121.46;1679442;84;21106;-81
2022/08/04 10:54:50;;;;;;;4.05;2.20;;;;;;;31.10;30.96;99119.94;1738684;82;20151;-79
2022/08/04 10:57:39;;;;;;;4.78;2.05;;;;;;;31.19;31.19;99121.58;1744251;81;20981;-80
2022/08/04 11:00:18;;;;;;;3.52;2.37;;;;;;;31.38;30.01;99119.55;1743583;81;21038;-80
2022/08/04 11:02:59;;;;;;;2.70;1.72;;;;;;;31.49;29.03;99122.70;1738993;81;21118;-80
2022/08/04 11:08:37;;;;;;;6.67;1.90;;;;;;;31.57;26.93;99115.13;1725292;81;21004;-79
2022/08/04 11:11:32;;;;;;;5.87;2.15;;;;;;;31.63;29.04;99120.32;1728305;81;21029;-79
2022/08/04 11:14:07;;;;;;;6.05;2.00;;;;;;;31.65;28.75;99118.30;1731840;82;21114;-82
2022/08/04 11:16:57;;;;;;;4.00;2.12;;;;;;;31.74;28.76;99107.86;1732087;82;21039;-85
2022/08/04 11:19:56;;;;;;;4.15;1.70;;;;;;;31.87;28.57;99108.14;1728234;82;21051;-81
2022/08/04 11:22:26;;;;;;;2.85;1.85;;;;;;;32.07;28.06;99110.41;1727496;82;21007;-80
2022/08/04 11:25:08;;;;;;;2.87;1.82;;;;;;;32.21;27.85;99113.70;1732708;82;21013;-81
2022/08/04 11:28:12;;;;;;;3.50;2.23;;;;;;;32.25;26.81;99107.44;1728068;82;21004;-80
2022/08/04 11:31:07;;;;;;;3.83;2.00;;;;;;;32.38;25.44;99106.87;1730091;82;21037;-81
2022/08/04 11:34:05;;;;;;;6.00;2.00;;;;;;;32.42;27.71;99100.94;1707096;82;21696;-81
2022/08/04 11:37:10;;;;;;;2.85;2.00;;;;;;;32.60;27.42;99099.84;1724848;81;21100;-81
2022/08/04 11:40:09;;;;;;;3.92;2.00;;;;;;;32.69;27.22;99099.59;1732479;82;21103;-81
2022/08/04 11:42:40;;;;;;;3.33;2.12;;;;;;;32.67;26.45;99103.49;1681668;82;21012;-81
2022/08/04 11:45:17;;;;;;;4.58;1.90;;;;;;;32.56;26.45;99102.56;1737307;82;20992;-82
2022/08/04 11:48:16;;;;;;;3.75;2.02;;;;;;;32.49;25.25;99105.08;1740953;82;21079;-81
2022/08/04 11:50:47;;;;;;;3.15;1.95;;;;;;;32.42;26.05;99096.91;1729231;82;21643;-81
2022/08/04 11:53:23;;;;;;;3.70;2.20;;;;;;;32.46;25.96;99094.70;1733429;82;21059;-82
2022/08/04 11:55:53;;;;;;;3.42;1.95;;;;;;;32.51;25.74;99088.28;1731829;82;21012;-80
2022/08/04 11:58:21;;;;;;;6.70;2.25;;;;;;;32.51;25.45;99088.28;1729041;82;21016;-80
2022/08/04 12:01:17;;;;;;;3.40;2.05;;;;;;;32.49;25.67;99084.91;1734298;82;21067;-81
2022/08/04 12:04:10;;;;;;;4.85;2.40;;;;;;;32.60;25.03;99090.42;1734302;82;21003;-80
2022/08/04 12:07:14;;;;;;;4.10;2.00;;;;;;;32.72;26.08;99078.72;1736167;82;21061;-82
2022/08/04 12:10:01;;;;;;;3.87;2.10;;;;;;;32.89;25.85;99078.38;1731087;82;20963;-80
2022/08/04 12:12:33;;;;;;;2.98;1.90;;;;;;;33.11;25.23;99077.69;1739436;82;21032;-81
2022/08/04 12:15:20;;;;;;;3.35;2.00;;;;;;;33.34;25.24;99066.32;1675469;85;20998;-81
2022/08/04 12:18:22;;;;;;;3.72;2.20;;;;;;;33.60;25.95;99069.05;1688955;84;20949;-81
2022/08/04 12:21:00;;;;;;;4.55;2.15;;;;;;;33.85;25.28;99069.08;1692867;84;21035;-80
2022/08/04 12:23:42;;;;;;;5.97;2.20;;;;;;;33.91;24.74;99071.54;1692061;84;20977;-79
2022/08/04 12:26:17;;;;;;;3.75;2.00;;;;;;;33.99;24.51;99076.81;1681464;84;21035;-79
2022/08/04 12:28:47;;;;;;;4.03;2.17;;;;;;;34.05;24.93;99060.39;1681123;84;21113;-79
2022/08/04 12:31:22;;;;;;;3.72;2.10;;;;;;;34.47;25.18;99066.84;1678137;84;21484;-79
2022/08/04 12:34:03;;;;;;;3.40;2.27;;;;;;;35.10;24.08;99071.51;1672075;84;21118;-80
2022/08/04 12:36:54;;;;;;;4.85;2.45;;;;;;;35.69;24.45;99058.06;1677049;84;21075;-81
2022/08/04 12:39:21;;;;;;;4.03;2.17;;;;;;;36.15;24.57;99052.84;1677019;84;21091;-80
2022/08/04 12:42:45;;;;;;;3.17;1.90;;;;;;;36.82;24.55;99047.47;1670785;84;21007;-81
2022/08/04 12:45:14;;;;;;;3.20;2.05;;;;;;;37.56;23.79;99045.44;1673316;84;21036;-80